sensor_id;sensor_type;location;lat;lon;timestamp;pressure;altitude;pressure_sealevel;temperature;humidity
26087;BME280;13851;43.434;28.338;2023-02-12T00:00:35;100541.06;;;-0.59;100.00
26087;BME280;13851;43.434;28.338;2023-02-12T00:03:01;100885.03;;;1.42;100.00
26087;BME280;13851;43.434;28.338;2023-02-12T00:05:27;100573.28;;;-0.29;100.00
26087;BME280;13851;43.434;28.338;2023-02-12T00:07:53;100881.75;;;1.51;100.00
26087;BME280;13851;43.434;28.338;2023-02-12T00:10:18;100558.78;;;-0.40;100.00
26087;BME280;13851;43.434;28.338;2023-02-12T00:12:44;100900.88;;;1.34;100.00
26087;BME280;13851;43.434;28.338;2023-02-12T00:15:10;100865.75;;;1.48;100.00
26087;BME280;13851;43.434;28.338;2023-02-12T00:17:35;100612.31;;;0.07;100.00
26087;BME280;13851;43.434;28.338;2023-02-12T00:20:01;100849.31;;;1.24;100.00
26087;BME280;13851;43.434;28.338;2023-02-12T00:22:26;100865.38;;;1.40;100.00
26087;BME280;13851;43.434;28.338;2023-02-12T00:24:54;100820.78;;;1.06;100.00
26087;BME280;13851;43.434;28.338;2023-02-12T00:27:22;100650.50;;;0.14;100.00
26087;BME280;13851;43.434;28.338;2023-02-12T00:29:48;100911.69;;;1.34;100.00
26087;BME280;13851;43.434;28.338;2023-02-12T00:32:15;100849.78;;;1.31;100.00
26087;BME280;13851;43.434;28.338;2023-02-12T00:34:47;100599.34;;;-1.03;100.00
26087;BME280;13851;43.434;28.338;2023-02-12T00:37:13;100927.31;;;1.29;100.00
26087;BME280;13851;43.434;28.338;2023-02-12T00:39:38;100896.34;;;1.20;100.00
26087;BME280;13851;43.434;28.338;2023-02-12T00:42:04;100643.38;;;-0.02;100.00
26087;BME280;13851;43.434;28.338;2023-02-12T00:44:32;100896.63;;;1.30;100.00
26087;BME280;13851;43.434;28.338;2023-02-12T00:46:58;100861.19;;;1.08;100.00
26087;BME280;13851;43.434;28.338;2023-02-12T00:49:30;100852.13;;;1.23;100.00
26087;BME280;13851;43.434;28.338;2023-02-12T00:52:00;100863.78;;;1.09;100.00
26087;BME280;13851;43.434;28.338;2023-02-12T00:54:27;100812.34;;;0.98;100.00
26087;BME280;13851;43.434;28.338;2023-02-12T00:56:55;100846.03;;;0.91;100.00
26087;BME280;13851;43.434;28.338;2023-02-12T00:59:22;100843.91;;;1.24;100.00
26087;BME280;13851;43.434;28.338;2023-02-12T01:01:48;100831.69;;;1.04;100.00
26087;BME280;13851;43.434;28.338;2023-02-12T01:04:17;100837.16;;;1.17;100.00
26087;BME280;13851;43.434;28.338;2023-02-12T01:06:43;100486.91;;;-0.83;100.00
26087;BME280;13851;43.434;28.338;2023-02-12T01:09:08;100851.56;;;1.03;100.00
26087;BME280;13851;43.434;28.338;2023-02-12T01:11:34;100752.16;;;0.55;100.00
26087;BME280;13851;43.434;28.338;2023-02-12T01:13:59;100824.97;;;0.97;100.00
26087;BME280;13851;43.434;28.338;2023-02-12T01:16:27;100823.41;;;1.08;100.00
26087;BME280;13851;43.434;28.338;2023-02-12T01:18:54;100659.38;;;0.02;100.00
26087;BME280;13851;43.434;28.338;2023-02-12T01:21:25;100754.81;;;0.12;100.00
26087;BME280;13851;43.434;28.338;2023-02-12T01:23:51;100820.63;;;0.95;100.00
26087;BME280;13851;43.434;28.338;2023-02-12T01:26:20;100816.09;;;0.67;100.00
26087;BME280;13851;43.434;28.338;2023-02-12T01:28:52;100831.22;;;0.69;100.00
26087;BME280;13851;43.434;28.338;2023-02-12T01:31:26;100806.16;;;0.96;100.00
26087;BME280;13851;43.434;28.338;2023-02-12T01:33:54;100819.53;;;1.12;100.00
26087;BME280;13851;43.434;28.338;2023-02-12T01:36:20;100649.75;;;0.26;100.00
26087;BME280;13851;43.434;28.338;2023-02-12T01:38:46;100786.97;;;1.00;100.00
26087;BME280;13851;43.434;28.338;2023-02-12T01:41:18;100519.53;;;-0.44;100.00
26087;BME280;13851;43.434;28.338;2023-02-12T01:43:43;100512.63;;;-0.48;100.00
26087;BME280;13851;43.434;28.338;2023-02-12T01:46:12;100816.72;;;1.27;100.00
26087;BME280;13851;43.434;28.338;2023-02-12T01:48:43;100803.06;;;1.16;100.00
26087;BME280;13851;43.434;28.338;2023-02-12T01:51:11;100806.72;;;1.15;100.00
26087;BME280;13851;43.434;28.338;2023-02-12T01:53:43;100790.47;;;0.88;100.00
26087;BME280;13851;43.434;28.338;2023-02-12T01:56:11;100734.63;;;0.62;100.00
26087;BME280;13851;43.434;28.338;2023-02-12T01:58:40;100812.22;;;0.85;100.00
26087;BME280;13851;43.434;28.338;2023-02-12T02:01:10;100801.63;;;0.96;100.00
26087;BME280;13851;43.434;28.338;2023-02-12T02:03:38;100776.59;;;0.66;100.00
26087;BME280;13851;43.434;28.338;2023-02-12T02:06:12;100807.25;;;0.79;100.00
26087;BME280;13851;43.434;28.338;2023-02-12T02:08:39;100768.97;;;0.30;100.00
26087;BME280;13851;43.434;28.338;2023-02-12T02:11:05;100561.69;;;-0.73;100.00
26087;BME280;13851;43.434;28.338;2023-02-12T02:13:51;100748.50;;;-0.17;100.00
26087;BME280;13851;43.434;28.338;2023-02-12T02:16:40;100833.09;;;-0.21;100.00
26087;BME280;13851;43.434;28.338;2023-02-12T02:29:49;100530.97;;;-1.75;100.00
26087;BME280;13851;43.434;28.338;2023-02-12T02:32:30;100562.25;;;-1.43;100.00
26087;BME280;13851;43.434;28.338;2023-02-12T02:37:59;100788.06;;;-0.04;100.00
26087;BME280;13851;43.434;28.338;2023-02-12T02:40:39;100770.91;;;-0.17;100.00
26087;BME280;13851;43.434;28.338;2023-02-12T02:43:23;100786.72;;;-0.27;100.00
26087;BME280;13851;43.434;28.338;2023-02-12T02:45:52;100843.13;;;0.07;100.00
26087;BME280;13851;43.434;28.338;2023-02-12T02:48:36;100507.03;;;-1.48;100.00
26087;BME280;13851;43.434;28.338;2023-02-12T02:51:08;100626.66;;;-0.95;100.00
26087;BME280;13851;43.434;28.338;2023-02-12T02:54:11;100794.09;;;0.16;100.00
26087;BME280;13851;43.434;28.338;2023-02-12T02:56:42;100771.34;;;0.06;100.00
26087;BME280;13851;43.434;28.338;2023-02-12T02:59:12;100531.44;;;-1.37;100.00
26087;BME280;13851;43.434;28.338;2023-02-12T03:01:49;100782.41;;;0.15;100.00
26087;BME280;13851;43.434;28.338;2023-02-12T03:04:43;100775.16;;;0.32;100.00
26087;BME280;13851;43.434;28.338;2023-02-12T03:09:51;100795.28;;;0.10;100.00
26087;BME280;13851;43.434;28.338;2023-02-12T03:12:23;100835.78;;;0.39;100.00
26087;BME280;13851;43.434;28.338;2023-02-12T03:15:00;100483.44;;;-1.43;100.00
26087;BME280;13851;43.434;28.338;2023-02-12T03:17:34;100842.53;;;0.46;100.00
26087;BME280;13851;43.434;28.338;2023-02-12T03:20:08;100862.66;;;0.40;100.00
26087;BME280;13851;43.434;28.338;2023-02-12T03:22:40;100663.03;;;-0.44;100.00
26087;BME280;13851;43.434;28.338;2023-02-12T03:25:11;100485.13;;;-1.57;100.00
26087;BME280;13851;43.434;28.338;2023-02-12T03:27:45;100478.72;;;-1.70;100.00
26087;BME280;13851;43.434;28.338;2023-02-12T03:30:13;100824.38;;;0.19;100.00
26087;BME280;13851;43.434;28.338;2023-02-12T03:33:05;100794.69;;;0.21;100.00
26087;BME280;13851;43.434;28.338;2023-02-12T03:35:43;100710.69;;;-0.30;100.00
26087;BME280;13851;43.434;28.338;2023-02-12T03:38:30;100811.78;;;0.20;100.00
26087;BME280;13851;43.434;28.338;2023-02-12T03:41:17;100806.72;;;-0.01;100.00
26087;BME280;13851;43.434;28.338;2023-02-12T03:47:26;100808.09;;;0.07;100.00
26087;BME280;13851;43.434;28.338;2023-02-12T03:50:05;100794.38;;;-0.19;100.00
26087;BME280;13851;43.434;28.338;2023-02-12T03:52:34;100331.63;;;-2.72;100.00
26087;BME280;13851;43.434;28.338;2023-02-12T03:55:02;100797.75;;;-0.31;100.00
26087;BME280;13851;43.434;28.338;2023-02-12T03:57:37;100473.91;;;-1.79;100.00
26087;BME280;13851;43.434;28.338;2023-02-12T04:00:08;100807.13;;;0.08;100.00
26087;BME280;13851;43.434;28.338;2023-02-12T04:02:35;100808.63;;;0.28;100.00
26087;BME280;13851;43.434;28.338;2023-02-12T04:05:05;100863.41;;;0.28;100.00
26087;BME280;13851;43.434;28.338;2023-02-12T04:07:32;100811.06;;;0.32;100.00
26087;BME280;13851;43.434;28.338;2023-02-12T04:09:57;100466.56;;;-1.61;100.00
26087;BME280;13851;43.434;28.338;2023-02-12T04:18:18;100781.91;;;0.53;100.00
26087;BME280;13851;43.434;28.338;2023-02-12T04:20:55;100814.97;;;1.26;100.00
26087;BME280;13851;43.434;28.338;2023-02-12T04:23:47;100814.31;;;1.91;100.00
26087;BME280;13851;43.434;28.338;2023-02-12T04:26:23;100800.19;;;1.73;100.00
26087;BME280;13851;43.434;28.338;2023-02-12T04:29:18;100808.44;;;1.58;100.00
26087;BME280;13851;43.434;28.338;2023-02-12T04:35:04;100821.06;;;1.30;100.00
26087;BME280;13851;43.434;28.338;2023-02-12T04:37:37;100841.53;;;1.06;100.00
26087;BME280;13851;43.434;28.338;2023-02-12T04:40:05;100879.59;;;1.15;100.00
26087;BME280;13851;43.434;28.338;2023-02-12T04:42:40;100812.16;;;0.58;100.00
26087;BME280;13851;43.434;28.338;2023-02-12T04:45:10;100816.00;;;0.83;100.00
26087;BME280;13851;43.434;28.338;2023-02-12T04:47:37;100559.88;;;-0.59;100.00
26087;BME280;13851;43.434;28.338;2023-02-12T04:50:03;100822.06;;;0.86;100.00
26087;BME280;13851;43.434;28.338;2023-02-12T04:52:29;100804.81;;;0.60;100.00
26087;BME280;13851;43.434;28.338;2023-02-12T04:54:54;100839.59;;;0.65;100.00
26087;BME280;13851;43.434;28.338;2023-02-12T04:57:20;100812.72;;;0.63;100.00
26087;BME280;13851;43.434;28.338;2023-02-12T04:59:45;100819.56;;;0.69;100.00
26087;BME280;13851;43.434;28.338;2023-02-12T05:02:11;100805.38;;;0.51;100.00
26087;BME280;13851;43.434;28.338;2023-02-12T05:04:36;100548.94;;;-1.00;100.00
26087;BME280;13851;43.434;28.338;2023-02-12T05:07:02;100616.94;;;-0.68;100.00
26087;BME280;13851;43.434;28.338;2023-02-12T05:09:27;100529.94;;;-1.27;100.00
26087;BME280;13851;43.434;28.338;2023-02-12T05:11:53;100835.53;;;0.58;100.00
26087;BME280;13851;43.434;28.338;2023-02-12T05:14:18;100557.75;;;-1.12;100.00
26087;BME280;13851;43.434;28.338;2023-02-12T05:16:44;100549.16;;;-1.19;100.00
26087;BME280;13851;43.434;28.338;2023-02-12T05:19:09;100807.81;;;0.41;100.00
26087;BME280;13851;43.434;28.338;2023-02-12T05:21:36;100879.44;;;0.60;100.00
26087;BME280;13851;43.434;28.338;2023-02-12T05:24:02;100845.53;;;0.56;100.00
26087;BME280;13851;43.434;28.338;2023-02-12T05:26:28;100849.44;;;0.36;100.00
26087;BME280;13851;43.434;28.338;2023-02-12T05:28:55;100822.38;;;0.23;100.00
26087;BME280;13851;43.434;28.338;2023-02-12T05:31:21;100846.28;;;0.43;100.00
26087;BME280;13851;43.434;28.338;2023-02-12T05:33:47;100532.94;;;-1.47;100.00
26087;BME280;13851;43.434;28.338;2023-02-12T05:36:17;100789.16;;;0.08;100.00
26087;BME280;13851;43.434;28.338;2023-02-12T05:38:43;100888.47;;;0.44;100.00
26087;BME280;13851;43.434;28.338;2023-02-12T05:41:14;100828.56;;;0.39;100.00
26087;BME280;13851;43.434;28.338;2023-02-12T05:43:41;100915.47;;;0.59;100.00
26087;BME280;13851;43.434;28.338;2023-02-12T05:46:07;100849.41;;;0.51;100.00
26087;BME280;13851;43.434;28.338;2023-02-12T05:48:41;100869.44;;;0.76;100.00
26087;BME280;13851;43.434;28.338;2023-02-12T05:51:10;100808.56;;;0.43;100.00
26087;BME280;13851;43.434;28.338;2023-02-12T05:53:37;100856.47;;;0.83;100.00
26087;BME280;13851;43.434;28.338;2023-02-12T05:56:18;100828.09;;;0.61;100.00
26087;BME280;13851;43.434;28.338;2023-02-12T05:58:47;100775.34;;;0.29;100.00
26087;BME280;13851;43.434;28.338;2023-02-12T06:01:19;100944.63;;;1.11;100.00
26087;BME280;13851;43.434;28.338;2023-02-12T06:03:45;100939.91;;;1.14;100.00
26087;BME280;13851;43.434;28.338;2023-02-12T06:06:11;100846.63;;;1.10;100.00
26087;BME280;13851;43.434;28.338;2023-02-12T06:08:37;100797.03;;;0.98;100.00
26087;BME280;13851;43.434;28.338;2023-02-12T06:11:07;100836.00;;;1.36;100.00
26087;BME280;13851;43.434;28.338;2023-02-12T06:13:33;100873.03;;;1.75;100.00
26087;BME280;13851;43.434;28.338;2023-02-12T06:15:59;100854.84;;;1.64;100.00
26087;BME280;13851;43.434;28.338;2023-02-12T06:18:26;100862.97;;;1.77;100.00
26087;BME280;13851;43.434;28.338;2023-02-12T06:20:52;100904.78;;;1.98;100.00
26087;BME280;13851;43.434;28.338;2023-02-12T06:23:26;100877.41;;;2.17;100.00
26087;BME280;13851;43.434;28.338;2023-02-12T06:25:56;100904.19;;;2.47;100.00
26087;BME280;13851;43.434;28.338;2023-02-12T06:28:22;100885.28;;;2.47;100.00
26087;BME280;13851;43.434;28.338;2023-02-12T06:30:49;100925.34;;;2.68;100.00
26087;BME280;13851;43.434;28.338;2023-02-12T06:33:15;100864.09;;;2.67;100.00
26087;BME280;13851;43.434;28.338;2023-02-12T06:35:40;100910.41;;;2.75;100.00
26087;BME280;13851;43.434;28.338;2023-02-12T06:38:09;100901.31;;;3.01;100.00
26087;BME280;13851;43.434;28.338;2023-02-12T06:40:35;100853.72;;;2.73;100.00
26087;BME280;13851;43.434;28.338;2023-02-12T06:43:03;100856.94;;;2.91;100.00
26087;BME280;13851;43.434;28.338;2023-02-12T06:45:29;100905.88;;;2.88;100.00
26087;BME280;13851;43.434;28.338;2023-02-12T06:47:54;100931.53;;;3.21;100.00
26087;BME280;13851;43.434;28.338;2023-02-12T06:50:20;100957.78;;;3.33;100.00
26087;BME280;13851;43.434;28.338;2023-02-12T06:52:46;100914.97;;;3.38;100.00
26087;BME280;13851;43.434;28.338;2023-02-12T06:55:11;100906.06;;;3.36;100.00
26087;BME280;13851;43.434;28.338;2023-02-12T06:57:37;100915.06;;;3.36;100.00
26087;BME280;13851;43.434;28.338;2023-02-12T07:00:03;100913.53;;;3.45;100.00
26087;BME280;13851;43.434;28.338;2023-02-12T07:02:31;100873.50;;;3.25;100.00
26087;BME280;13851;43.434;28.338;2023-02-12T07:04:56;100923.84;;;3.40;100.00
26087;BME280;13851;43.434;28.338;2023-02-12T07:07:22;100890.72;;;3.24;100.00
26087;BME280;13851;43.434;28.338;2023-02-12T07:09:50;100948.66;;;3.34;100.00
26087;BME280;13851;43.434;28.338;2023-02-12T07:12:15;100938.00;;;3.69;100.00
26087;BME280;13851;43.434;28.338;2023-02-12T07:14:41;100636.19;;;1.88;100.00
26087;BME280;13851;43.434;28.338;2023-02-12T07:17:06;100924.72;;;3.53;100.00
26087;BME280;13851;43.434;28.338;2023-02-12T07:19:34;100946.47;;;3.26;100.00
26087;BME280;13851;43.434;28.338;2023-02-12T07:21:59;100954.59;;;3.52;100.00
26087;BME280;13851;43.434;28.338;2023-02-12T07:24:25;100631.09;;;1.83;100.00
26087;BME280;13851;43.434;28.338;2023-02-12T07:26:50;100989.00;;;3.88;100.00
26087;BME280;13851;43.434;28.338;2023-02-12T07:29:16;100936.88;;;4.08;100.00
26087;BME280;13851;43.434;28.338;2023-02-12T07:31:41;100938.25;;;4.27;100.00
26087;BME280;13851;43.434;28.338;2023-02-12T07:34:08;100927.53;;;4.25;100.00
26087;BME280;13851;43.434;28.338;2023-02-12T07:36:34;100750.63;;;3.38;100.00
26087;BME280;13851;43.434;28.338;2023-02-12T07:39:00;100899.22;;;4.16;100.00
26087;BME280;13851;43.434;28.338;2023-02-12T07:41:34;100919.00;;;4.30;100.00
26087;BME280;13851;43.434;28.338;2023-02-12T07:44:03;100823.25;;;3.81;100.00
26087;BME280;13851;43.434;28.338;2023-02-12T07:46:36;100948.19;;;4.50;100.00
26087;BME280;13851;43.434;28.338;2023-02-12T07:49:03;100982.22;;;4.43;100.00
26087;BME280;13851;43.434;28.338;2023-02-12T07:51:33;100701.03;;;3.01;100.00
26087;BME280;13851;43.434;28.338;2023-02-12T07:53:59;100939.84;;;4.53;100.00
26087;BME280;13851;43.434;28.338;2023-02-12T07:56:29;100955.78;;;4.58;100.00
26087;BME280;13851;43.434;28.338;2023-02-12T07:59:01;100869.22;;;4.07;100.00
26087;BME280;13851;43.434;28.338;2023-02-12T08:01:48;100957.66;;;4.68;100.00
26087;BME280;13851;43.434;28.338;2023-02-12T08:04:15;100862.69;;;4.09;100.00
26087;BME280;13851;43.434;28.338;2023-02-12T08:06:44;100959.53;;;4.44;100.00
26087;BME280;13851;43.434;28.338;2023-02-12T08:09:12;100903.88;;;4.38;100.00
26087;BME280;13851;43.434;28.338;2023-02-12T08:11:40;100737.53;;;3.56;100.00
26087;BME280;13851;43.434;28.338;2023-02-12T08:14:06;100955.78;;;4.93;100.00
26087;BME280;13851;43.434;28.338;2023-02-12T08:16:37;100925.41;;;4.88;100.00
26087;BME280;13851;43.434;28.338;2023-02-12T08:19:03;100969.53;;;5.14;100.00
26087;BME280;13851;43.434;28.338;2023-02-12T08:21:29;100965.59;;;5.18;100.00
26087;BME280;13851;43.434;28.338;2023-02-12T08:23:56;100919.88;;;5.01;100.00
26087;BME280;13851;43.434;28.338;2023-02-12T08:26:28;100953.13;;;5.27;100.00
26087;BME280;13851;43.434;28.338;2023-02-12T08:29:03;100912.13;;;5.30;100.00
26087;BME280;13851;43.434;28.338;2023-02-12T08:31:34;100973.91;;;5.72;100.00
26087;BME280;13851;43.434;28.338;2023-02-12T08:34:00;100749.41;;;5.15;100.00
26087;BME280;13851;43.434;28.338;2023-02-12T08:36:37;100961.66;;;6.66;100.00
26087;BME280;13851;43.434;28.338;2023-02-12T08:39:04;100732.28;;;5.47;100.00
26087;BME280;13851;43.434;28.338;2023-02-12T08:41:30;100691.56;;;5.36;100.00
26087;BME280;13851;43.434;28.338;2023-02-12T08:44:00;101036.91;;;7.20;100.00
26087;BME280;13851;43.434;28.338;2023-02-12T08:46:31;100762.38;;;6.10;100.00
26087;BME280;13851;43.434;28.338;2023-02-12T08:49:03;100999.94;;;7.69;100.00
26087;BME280;13851;43.434;28.338;2023-02-12T08:51:32;100764.16;;;6.62;100.00
26087;BME280;13851;43.434;28.338;2023-02-12T08:54:00;100998.53;;;8.55;100.00
26087;BME280;13851;43.434;28.338;2023-02-12T08:56:27;101031.09;;;9.07;100.00
26087;BME280;13851;43.434;28.338;2023-02-12T08:58:56;101020.25;;;9.44;100.00
26087;BME280;13851;43.434;28.338;2023-02-12T09:01:23;100786.38;;;7.98;100.00
26087;BME280;13851;43.434;28.338;2023-02-12T09:03:50;101042.56;;;9.20;100.00
26087;BME280;13851;43.434;28.338;2023-02-12T09:06:18;100997.69;;;9.13;100.00
26087;BME280;13851;43.434;28.338;2023-02-12T09:08:43;101012.94;;;9.25;100.00
26087;BME280;13851;43.434;28.338;2023-02-12T09:11:12;100752.19;;;7.74;100.00
26087;BME280;13851;43.434;28.338;2023-02-12T09:13:41;100718.88;;;7.61;100.00
26087;BME280;13851;43.434;28.338;2023-02-12T09:16:07;100760.53;;;7.73;100.00
26087;BME280;13851;43.434;28.338;2023-02-12T09:18:34;101014.69;;;9.07;100.00
26087;BME280;13851;43.434;28.338;2023-02-12T09:21:06;101030.66;;;9.02;100.00
26087;BME280;13851;43.434;28.338;2023-02-12T09:23:32;100989.94;;;8.79;100.00
26087;BME280;13851;43.434;28.338;2023-02-12T09:25:59;100726.84;;;7.24;100.00
26087;BME280;13851;43.434;28.338;2023-02-12T09:28:25;100987.91;;;8.62;100.00
26087;BME280;13851;43.434;28.338;2023-02-12T09:30:50;101020.59;;;9.12;100.00
26087;BME280;13851;43.434;28.338;2023-02-12T09:33:16;100762.81;;;7.68;100.00
26087;BME280;13851;43.434;28.338;2023-02-12T09:35:42;101028.50;;;8.96;100.00
26087;BME280;13851;43.434;28.338;2023-02-12T09:38:09;100959.44;;;8.84;100.00
26087;BME280;13851;43.434;28.338;2023-02-12T09:43:59;101022.72;;;8.99;100.00
26087;BME280;13851;43.434;28.338;2023-02-12T09:46:29;101020.72;;;8.81;100.00
26087;BME280;13851;43.434;28.338;2023-02-12T09:49:08;101050.59;;;8.64;100.00
26087;BME280;13851;43.434;28.338;2023-02-12T09:51:39;100747.91;;;6.82;100.00
26087;BME280;13851;43.434;28.338;2023-02-12T09:54:13;100874.09;;;7.43;100.00
26087;BME280;13851;43.434;28.338;2023-02-12T09:56:45;100711.22;;;6.24;100.00
26087;BME280;13851;43.434;28.338;2023-02-12T09:59:25;101053.56;;;7.59;100.00
26087;BME280;13851;43.434;28.338;2023-02-12T10:01:53;100762.69;;;6.16;100.00
26087;BME280;13851;43.434;28.338;2023-02-12T10:04:22;101074.84;;;7.65;100.00
26087;BME280;13851;43.434;28.338;2023-02-12T10:07:01;101007.41;;;7.25;100.00
26087;BME280;13851;43.434;28.338;2023-02-12T10:09:33;101030.53;;;7.52;100.00
26087;BME280;13851;43.434;28.338;2023-02-12T10:12:20;101047.50;;;7.35;100.00
26087;BME280;13851;43.434;28.338;2023-02-12T10:17:26;101036.59;;;7.35;100.00
26087;BME280;13851;43.434;28.338;2023-02-12T10:25:58;100732.50;;;4.89;100.00
26087;BME280;13851;43.434;28.338;2023-02-12T10:28:38;100866.19;;;5.27;100.00
26087;BME280;13851;43.434;28.338;2023-02-12T10:31:11;101038.94;;;6.32;100.00
26087;BME280;13851;43.434;28.338;2023-02-12T10:33:47;100812.84;;;4.81;100.00
26087;BME280;13851;43.434;28.338;2023-02-12T10:36:49;101044.50;;;6.19;100.00
26087;BME280;13851;43.434;28.338;2023-02-12T10:39:23;101074.81;;;6.03;100.00
26087;BME280;13851;43.434;28.338;2023-02-12T10:41:54;101064.44;;;6.08;100.00
26087;BME280;13851;43.434;28.338;2023-02-12T10:44:21;100796.75;;;4.44;100.00
26087;BME280;13851;43.434;28.338;2023-02-12T10:46:47;101053.81;;;5.47;100.00
26087;BME280;13851;43.434;28.338;2023-02-12T10:49:16;101030.44;;;5.91;100.00
26087;BME280;13851;43.434;28.338;2023-02-12T10:57:13;101042.38;;;5.66;100.00
26087;BME280;13851;43.434;28.338;2023-02-12T10:59:43;100788.81;;;4.30;100.00
26087;BME280;13851;43.434;28.338;2023-02-12T11:02:24;101074.91;;;5.90;100.00
26087;BME280;13851;43.434;28.338;2023-02-12T11:04:51;101076.78;;;5.90;100.00
26087;BME280;13851;43.434;28.338;2023-02-12T11:07:20;101100.75;;;5.85;100.00
26087;BME280;13851;43.434;28.338;2023-02-12T11:09:48;101061.91;;;5.71;100.00
26087;BME280;13851;43.434;28.338;2023-02-12T11:12:41;100787.25;;;4.03;100.00
26087;BME280;13851;43.434;28.338;2023-02-12T11:15:23;101055.84;;;5.21;100.00
26087;BME280;13851;43.434;28.338;2023-02-12T11:18:00;101052.81;;;5.37;100.00
26087;BME280;13851;43.434;28.338;2023-02-12T11:20:38;101037.22;;;5.17;100.00
26087;BME280;13851;43.434;28.338;2023-02-12T11:31:28;100991.34;;;4.66;100.00
26087;BME280;13851;43.434;28.338;2023-02-12T11:34:13;101074.00;;;5.21;100.00
26087;BME280;13851;43.434;28.338;2023-02-12T11:36:45;101062.75;;;5.14;100.00
26087;BME280;13851;43.434;28.338;2023-02-12T11:39:26;101071.78;;;5.26;100.00
26087;BME280;13851;43.434;28.338;2023-02-12T11:41:58;101103.44;;;5.03;100.00
26087;BME280;13851;43.434;28.338;2023-02-12T11:44:27;101097.16;;;5.03;100.00
26087;BME280;13851;43.434;28.338;2023-02-12T11:47:05;101080.25;;;5.10;100.00
26087;BME280;13851;43.434;28.338;2023-02-12T11:52:26;101134.00;;;4.94;100.00
26087;BME280;13851;43.434;28.338;2023-02-12T11:54:55;100913.75;;;3.91;100.00
26087;BME280;13851;43.434;28.338;2023-02-12T11:57:44;101086.56;;;5.11;100.00
26087;BME280;13851;43.434;28.338;2023-02-12T12:02:54;101090.03;;;4.89;100.00
26087;BME280;13851;43.434;28.338;2023-02-12T12:05:26;101061.66;;;4.69;100.00
26087;BME280;13851;43.434;28.338;2023-02-12T12:08:02;101024.22;;;4.85;100.00
26087;BME280;13851;43.434;28.338;2023-02-12T12:10:43;101074.75;;;5.23;100.00
26087;BME280;13851;43.434;28.338;2023-02-12T12:13:24;101075.00;;;4.96;100.00
26087;BME280;13851;43.434;28.338;2023-02-12T12:16:05;101064.94;;;5.09;100.00
26087;BME280;13851;43.434;28.338;2023-02-12T12:18:56;101042.25;;;5.21;100.00
26087;BME280;13851;43.434;28.338;2023-02-12T12:27:43;101082.25;;;5.55;100.00
26087;BME280;13851;43.434;28.338;2023-02-12T12:30:47;101132.59;;;5.71;100.00
26087;BME280;13851;43.434;28.338;2023-02-12T12:33:25;101079.47;;;5.79;100.00
26087;BME280;13851;43.434;28.338;2023-02-12T12:52:56;101096.66;;;5.79;100.00
26087;BME280;13851;43.434;28.338;2023-02-12T13:09:44;101117.09;;;6.18;100.00
26087;BME280;13851;43.434;28.338;2023-02-12T13:17:50;101107.13;;;6.30;100.00
26087;BME280;13851;43.434;28.338;2023-02-12T13:23:13;101097.34;;;6.16;100.00
26087;BME280;13851;43.434;28.338;2023-02-12T13:26:06;101149.28;;;6.36;100.00
26087;BME280;13851;43.434;28.338;2023-02-12T13:28:34;101057.44;;;6.71;100.00
26087;BME280;13851;43.434;28.338;2023-02-12T13:31:06;101167.09;;;7.81;100.00
26087;BME280;13851;43.434;28.338;2023-02-12T13:33:38;101128.50;;;8.58;100.00
26087;BME280;13851;43.434;28.338;2023-02-12T13:36:07;101177.19;;;8.83;100.00
26087;BME280;13851;43.434;28.338;2023-02-12T13:38:38;101145.75;;;9.08;100.00
26087;BME280;13851;43.434;28.338;2023-02-12T13:41:08;101028.06;;;8.31;100.00
26087;BME280;13851;43.434;28.338;2023-02-12T13:46:37;101140.19;;;8.79;100.00
26087;BME280;13851;43.434;28.338;2023-02-12T13:52:22;100888.25;;;6.65;100.00
26087;BME280;13851;43.434;28.338;2023-02-12T13:55:13;101172.56;;;7.81;100.00
26087;BME280;13851;43.434;28.338;2023-02-12T13:57:43;101082.09;;;7.02;100.00
26087;BME280;13851;43.434;28.338;2023-02-12T14:03:22;101078.03;;;6.42;100.00
26087;BME280;13851;43.434;28.338;2023-02-12T14:06:26;101159.44;;;6.67;100.00
26087;BME280;13851;43.434;28.338;2023-02-12T14:09:09;101159.91;;;6.16;100.00
26087;BME280;13851;43.434;28.338;2023-02-12T14:11:50;101185.91;;;6.32;100.00
26087;BME280;13851;43.434;28.338;2023-02-12T14:14:26;100901.63;;;4.56;100.00
26087;BME280;13851;43.434;28.338;2023-02-12T14:16:53;101102.19;;;5.66;100.00
26087;BME280;13851;43.434;28.338;2023-02-12T14:22:12;101188.13;;;5.80;100.00
26087;BME280;13851;43.434;28.338;2023-02-12T14:27:13;100946.09;;;4.78;100.00
26087;BME280;13851;43.434;28.338;2023-02-12T14:35:34;101208.22;;;7.68;100.00
26087;BME280;13851;43.434;28.338;2023-02-12T14:41:15;100795.13;;;6.29;100.00
26087;BME280;13851;43.434;28.338;2023-02-12T14:46:49;101268.78;;;9.68;100.00
26087;BME280;13851;43.434;28.338;2023-02-12T14:49:51;101229.75;;;9.85;100.00
26087;BME280;13851;43.434;28.338;2023-02-12T14:52:27;101089.22;;;9.28;100.00
26087;BME280;13851;43.434;28.338;2023-02-12T14:55:02;101117.09;;;9.80;100.00
26087;BME280;13851;43.434;28.338;2023-02-12T14:57:40;100952.97;;;8.85;100.00
26087;BME280;13851;43.434;28.338;2023-02-12T15:00:31;101238.31;;;10.68;100.00
26087;BME280;13851;43.434;28.338;2023-02-12T15:03:16;101344.13;;;10.88;100.00
26087;BME280;13851;43.434;28.338;2023-02-12T15:06:02;101241.69;;;10.89;100.00
26087;BME280;13851;43.434;28.338;2023-02-12T15:09:02;101244.78;;;10.77;100.00
26087;BME280;13851;43.434;28.338;2023-02-12T15:14:05;101299.34;;;10.60;100.00